Time;durP1;ratioP1;P1;durP2;ratioP2;P2;SDS_P1;SDS_P2;PMS_P1;PMS_P2;Temp;Humidity;BMP_temperature;BMP_pressure;BME280_temperature;BME280_humidity;BME280_pressure;Samples;Min_cycle;Max_cycle;Signal;HPM_P1;HPM_P2
2022/08/05 00:00:19;;;;;;;;;4.00;4.00;;;;;19.57;100.00;101030.03;4958807;28;45513;-62
2022/08/05 00:02:46;;;;;;;;;7.75;5.00;;;;;19.55;100.00;101079.38;4958690;28;45887;-62
2022/08/05 00:05:11;;;;;;;;;7.50;7.00;;;;;19.52;100.00;101192.88;4958825;28;45539;-61
2022/08/05 00:07:36;;;;;;;;;6.25;5.50;;;;;19.50;100.00;101231.66;4956613;28;45296;-61
2022/08/05 00:10:04;;;;;;;;;10.25;8.00;;;;;19.53;100.00;101224.44;4956177;28;45428;-61
2022/08/05 00:12:30;;;;;;;;;9.25;8.25;;;;;19.54;100.00;101197.16;4954865;28;46979;-60
2022/08/05 00:14:55;;;;;;;;;9.25;7.25;;;;;19.51;100.00;101194.66;4956113;28;45468;-60
2022/08/05 00:17:21;;;;;;;;;7.25;6.00;;;;;19.52;100.00;101282.53;4956443;28;45786;-60
2022/08/05 00:19:46;;;;;;;;;7.50;7.00;;;;;19.60;100.00;101322.50;4956610;28;45391;-60
2022/08/05 00:22:11;;;;;;;;;7.25;5.75;;;;;19.69;100.00;101291.22;4957365;28;45533;-60
2022/08/05 00:24:37;;;;;;;;;5.75;5.75;;;;;19.75;100.00;101309.31;4956863;28;45392;-60
2022/08/05 00:27:03;;;;;;;;;9.25;7.75;;;;;19.82;100.00;101356.44;4956893;28;45387;-60
2022/08/05 00:29:28;;;;;;;;;9.00;5.75;;;;;19.84;100.00;101373.91;4957377;28;45743;-60
2022/08/05 00:31:54;;;;;;;;;6.25;6.00;;;;;19.87;100.00;101325.41;4954380;28;45434;-60
2022/08/05 00:34:19;;;;;;;;;7.50;5.50;;;;;19.86;100.00;101286.78;4956757;28;45389;-60
2022/08/05 00:36:45;;;;;;;;;6.25;6.00;;;;;19.86;100.00;101263.88;4957815;28;45292;-60
2022/08/05 00:39:11;;;;;;;;;10.50;6.50;;;;;19.87;100.00;101265.56;4952469;28;45290;-61
2022/08/05 00:41:36;;;;;;;;;6.50;5.75;;;;;19.75;100.00;101275.03;5017295;28;47200;-60
2022/08/05 00:44:02;;;;;;;;;6.50;5.50;;;;;19.80;100.00;101355.69;4958227;28;45263;-60
2022/08/05 00:46:27;;;;;;;;;5.00;5.00;;;;;19.79;100.00;101394.41;4974825;28;45268;-59
2022/08/05 00:48:53;;;;;;;;;7.25;6.00;;;;;19.80;100.00;101351.25;4957108;28;45801;-60
2022/08/05 00:51:20;;;;;;;;;5.25;5.00;;;;;19.83;100.00;101308.91;4957288;28;46143;-60
2022/08/05 00:53:48;;;;;;;;;7.00;5.75;;;;;19.84;100.00;101257.84;4955610;28;45422;-59
2022/08/05 00:56:15;;;;;;;;;6.00;5.00;;;;;19.80;100.00;101289.75;4957881;28;45474;-59
2022/08/05 00:58:41;;;;;;;;;8.75;7.00;;;;;19.69;100.00;101293.84;4958336;28;45328;-59
2022/08/05 01:01:06;;;;;;;;;8.00;6.75;;;;;19.48;100.00;101304.72;4956352;28;45348;-59
2022/08/05 01:03:31;;;;;;;;;7.50;6.75;;;;;19.20;100.00;101292.19;4958086;28;45244;-59
2022/08/05 01:05:57;;;;;;;;;7.00;7.00;;;;;19.02;100.00;101310.72;4958074;28;45304;-59
2022/08/05 01:08:22;;;;;;;;;5.00;4.00;;;;;19.00;100.00;101351.22;4958079;28;45240;-60
2022/08/05 01:10:53;;;;;;;;;5.50;5.50;;;;;19.05;100.00;101352.72;4957895;28;45209;-59
2022/08/05 01:13:46;;;;;;;;;7.00;4.75;;;;;19.11;100.00;101270.69;4958280;28;45335;-59
2022/08/05 01:16:29;;;;;;;;;6.50;5.75;;;;;19.09;100.00;101272.56;4957764;28;45453;-59
2022/08/05 01:19:05;;;;;;;;;5.25;5.00;;;;;18.92;100.00;101288.44;4955857;28;45318;-59
2022/08/05 01:21:36;;;;;;;;;13.75;8.50;;;;;18.78;100.00;101301.47;4957577;28;45243;-60
2022/08/05 01:24:21;;;;;;;;;6.00;6.00;;;;;18.76;100.00;101324.41;4957695;28;45609;-61
2022/08/05 01:27:03;;;;;;;;;8.25;5.25;;;;;18.81;100.00;101315.31;4956546;28;45245;-61
2022/08/05 01:29:35;;;;;;;;;7.50;4.50;;;;;18.87;100.00;101322.06;4953631;28;45432;-61
2022/08/05 01:32:05;;;;;;;;;5.50;4.75;;;;;18.94;100.00;101293.59;4957429;28;46245;-61
2022/08/05 01:34:36;;;;;;;;;8.75;6.50;;;;;18.96;100.00;101289.97;4957715;28;45219;-61
2022/08/05 01:37:16;;;;;;;;;4.00;4.00;;;;;19.00;100.00;101269.56;4957656;28;45319;-61
2022/08/05 01:39:44;;;;;;;;;8.50;6.00;;;;;19.00;100.00;101259.03;4947541;28;45244;-61
2022/08/05 01:42:13;;;;;;;;;7.75;5.75;;;;;19.02;100.00;101238.72;4949110;28;46673;-62
2022/08/05 01:44:39;;;;;;;;;7.75;6.25;;;;;19.06;100.00;101229.75;4948921;28;45720;-61
2022/08/05 01:47:06;;;;;;;;;9.00;7.25;;;;;19.08;100.00;101198.88;4974689;28;45307;-64
2022/08/05 01:49:39;;;;;;;;;5.00;5.00;;;;;19.04;100.00;101213.16;4957250;28;45500;-63
2022/08/05 01:52:05;;;;;;;;;4.75;4.75;;;;;18.96;100.00;101247.81;4957124;28;45506;-63
2022/08/05 01:54:40;;;;;;;;;7.25;7.25;;;;;18.96;100.00;101254.88;4957406;28;45221;-62
2022/08/05 01:57:08;;;;;;;;;9.25;4.75;;;;;19.01;100.00;101258.94;4945021;28;45399;-62
2022/08/05 01:59:35;;;;;;;;;5.25;4.25;;;;;19.04;100.00;101273.75;4957253;28;45398;-62
2022/08/05 02:02:01;;;;;;;;;4.00;4.00;;;;;19.05;100.00;101273.66;4957248;28;46194;-62
2022/08/05 02:04:29;;;;;;;;;7.25;4.50;;;;;19.04;100.00;101228.97;4957247;28;45282;-62
2022/08/05 02:06:56;;;;;;;;;5.50;5.50;;;;;19.00;100.00;101207.19;4957365;28;45319;-62
2022/08/05 02:09:21;;;;;;;;;8.00;7.00;;;;;18.99;100.00;101213.41;4969925;28;45160;-62
2022/08/05 02:11:57;;;;;;;;;5.00;5.00;;;;;18.95;100.00;101235.56;4957198;28;45231;-62
2022/08/05 02:14:31;;;;;;;;;6.25;5.25;;;;;18.97;100.00;101236.34;4956582;28;45278;-61
2022/08/05 02:17:06;;;;;;;;;4.75;4.25;;;;;19.04;100.00;101265.84;4955285;28;45328;-62
2022/08/05 02:19:41;;;;;;;;;5.25;5.25;;;;;19.05;100.00;101262.28;4955011;28;45416;-61
2022/08/05 02:22:27;;;;;;;;;5.50;5.50;;;;;19.10;100.00;101265.50;4956532;28;45333;-61
2022/08/05 02:25:07;;;;;;;;;7.25;4.50;;;;;19.17;100.00;101258.13;4956693;28;45595;-61
2022/08/05 02:27:37;;;;;;;;;5.75;5.75;;;;;19.22;100.00;101258.69;4969768;28;45271;-61
2022/08/05 02:30:03;;;;;;;;;4.25;4.00;;;;;19.26;100.00;101291.88;4956115;28;45257;-61
2022/08/05 02:32:32;;;;;;;;;6.25;5.00;;;;;19.33;100.00;101298.50;4958573;28;47578;-60
2022/08/05 02:35:02;;;;;;;;;8.00;6.25;;;;;19.35;100.00;101288.72;4959673;28;45386;-60
2022/08/05 02:37:32;;;;;;;;;8.75;6.00;;;;;19.40;100.00;101294.59;4947267;28;45394;-62
2022/08/05 02:39:59;;;;;;;;;6.50;6.50;;;;;19.37;100.00;101300.03;4947428;28;45492;-62
2022/08/05 02:42:25;;;;;;;;;5.25;5.25;;;;;19.38;100.00;101301.72;4959040;28;47276;-61
2022/08/05 02:44:51;;;;;;;;;8.00;5.25;;;;;19.40;100.00;101316.53;4959631;28;45421;-61
2022/08/05 02:47:17;;;;;;;;;6.25;5.00;;;;;19.45;100.00;101313.66;4976724;28;45480;-60
2022/08/05 02:49:45;;;;;;;;;6.25;6.00;;;;;19.44;100.00;101285.59;4970468;28;45319;-60
2022/08/05 02:52:17;;;;;;;;;6.00;5.00;;;;;19.40;100.00;101265.59;4959286;28;46674;-59
2022/08/05 02:54:43;;;;;;;;;7.00;7.00;;;;;19.38;100.00;101235.84;4959495;28;45513;-60
2022/08/05 02:57:13;;;;;;;;;4.75;4.00;;;;;19.32;100.00;101237.03;4959794;28;45430;-60
2022/08/05 02:59:41;;;;;;;;;5.75;4.00;;;;;19.19;100.00;101214.94;4959294;28;45315;-60
2022/08/05 03:02:08;;;;;;;;;5.00;5.00;;;;;19.09;100.00;101209.34;4959618;28;46319;-61
2022/08/05 03:04:35;;;;;;;;;7.00;6.00;;;;;19.05;100.00;101214.88;4959370;28;45236;-60
2022/08/05 03:07:00;;;;;;;;;3.00;3.00;;;;;19.01;100.00;101248.41;4959353;28;45162;-61
2022/08/05 03:09:26;;;;;;;;;6.50;4.50;;;;;18.91;100.00;101249.84;4961743;28;45398;-61
2022/08/05 03:11:52;;;;;;;;;5.50;5.25;;;;;18.90;100.00;101268.38;4969309;28;46260;-60
2022/08/05 03:14:18;;;;;;;;;6.75;6.75;;;;;18.94;100.00;101283.06;4959029;28;45617;-60
2022/08/05 03:16:43;;;;;;;;;4.50;4.50;;;;;18.99;100.00;101287.16;4958198;28;45437;-61
2022/08/05 03:19:08;;;;;;;;;5.50;5.50;;;;;19.09;100.00;101285.75;4959231;28;45448;-61
2022/08/05 03:21:34;;;;;;;;;6.00;5.00;;;;;19.14;100.00;101272.31;4959096;28;47081;-61
2022/08/05 03:24:00;;;;;;;;;6.50;6.50;;;;;19.17;100.00;101255.47;4958498;28;45361;-61
2022/08/05 03:26:26;;;;;;;;;8.25;5.00;;;;;19.21;100.00;101264.91;4957335;28;45324;-60
2022/08/05 03:28:51;;;;;;;;;9.00;4.50;;;;;19.20;100.00;101260.56;4956599;28;45346;-60
2022/08/05 03:31:17;;;;;;;;;5.25;4.75;;;;;19.15;100.00;101266.09;4956457;28;46394;-61
2022/08/05 03:33:43;;;;;;;;;4.00;4.00;;;;;19.17;100.00;101266.03;4956580;28;45389;-60
2022/08/05 03:36:09;;;;;;;;;6.50;5.00;;;;;19.15;100.00;101268.75;4956584;28;45656;-60
2022/08/05 03:38:40;;;;;;;;;5.50;5.00;;;;;19.15;100.00;101274.84;4955283;28;45555;-60
2022/08/05 03:41:05;;;;;;;;;6.00;6.00;;;;;19.17;100.00;101266.03;4946443;28;47314;-60
2022/08/05 03:43:31;;;;;;;;;6.50;4.25;;;;;19.16;100.00;101259.91;4971382;28;45724;-60
2022/08/05 03:45:56;;;;;;;;;6.00;5.00;;;;;19.18;100.00;101270.34;4969855;28;45484;-60
2022/08/05 03:48:21;;;;;;;;;7.25;4.00;;;;;19.19;100.00;101279.94;4964425;28;45234;-60
2022/08/05 03:50:58;;;;;;;;;6.75;4.50;;;;;19.24;100.00;101284.06;4958581;28;45349;-60
2022/08/05 03:53:32;;;;;;;;;6.50;6.00;;;;;19.27;100.00;101281.25;4958643;28;45215;-60
2022/08/05 03:56:06;;;;;;;;;6.75;6.75;;;;;19.32;100.00;101286.25;4958894;28;45267;-60
2022/08/05 03:58:35;;;;;;;;;5.00;5.00;;;;;19.35;100.00;101283.44;4958631;28;45232;-60
2022/08/05 04:01:03;;;;;;;;;6.00;5.25;;;;;19.38;100.00;101281.50;4958407;28;46293;-60
2022/08/05 04:03:34;;;;;;;;;5.50;4.75;;;;;19.38;100.00;101292.03;4945696;28;45255;-60
2022/08/05 04:06:00;;;;;;;;;5.00;5.00;;;;;19.41;100.00;101283.09;4957915;28;45441;-60
2022/08/05 04:08:28;;;;;;;;;4.75;4.75;;;;;19.37;100.00;101279.78;4958760;28;45362;-60
2022/08/05 04:10:55;;;;;;;;;6.25;5.00;;;;;19.39;100.00;101277.06;4958403;28;46551;-60
2022/08/05 04:13:22;;;;;;;;;6.00;5.00;;;;;19.40;100.00;101276.97;4958651;28;45513;-60
2022/08/05 04:15:48;;;;;;;;;6.50;4.00;;;;;19.41;100.00;101273.41;4957355;28;45345;-60
2022/08/05 04:18:14;;;;;;;;;8.00;7.00;;;;;19.43;100.00;101278.63;4958566;28;45492;-60
2022/08/05 04:20:39;;;;;;;;;11.25;6.75;;;;;19.43;100.00;101266.28;4958149;28;46254;-60
2022/08/05 04:23:05;;;;;;;;;6.50;5.75;;;;;19.42;100.00;101282.16;4958508;28;45501;-61
2022/08/05 04:25:31;;;;;;;;;4.50;4.50;;;;;19.42;100.00;101283.03;4958559;28;46213;-61
2022/08/05 04:27:56;;;;;;;;;6.75;5.00;;;;;19.42;100.00;101276.91;4958695;28;45287;-61
2022/08/05 04:30:21;;;;;;;;;7.00;6.00;;;;;19.38;100.00;101278.00;4968400;28;46087;-61
2022/08/05 04:32:47;;;;;;;;;5.50;4.50;;;;;19.32;100.00;101268.66;4958247;28;45345;-62
2022/08/05 04:35:12;;;;;;;;;7.75;6.00;;;;;19.37;100.00;101277.16;4958155;28;45307;-61
2022/08/05 04:37:37;;;;;;;;;5.75;5.00;;;;;19.39;100.00;101277.06;4958562;28;45601;-61
2022/08/05 04:40:03;;;;;;;;;6.25;5.50;;;;;19.39;100.00;101285.81;4945320;28;48103;-61
2022/08/05 04:42:29;;;;;;;;;6.25;5.75;;;;;19.36;100.00;101278.09;4945561;28;45288;-61
2022/08/05 04:44:55;;;;;;;;;7.50;5.00;;;;;19.36;100.00;101279.88;4958050;28;45387;-61
2022/08/05 04:47:20;;;;;;;;;9.25;7.00;;;;;19.35;100.00;101283.44;4975388;28;45502;-61
2022/08/05 04:49:45;;;;;;;;;6.50;6.50;;;;;19.33;100.00;101293.22;4957738;28;45245;-61
2022/08/05 04:52:11;;;;;;;;;7.75;6.00;;;;;19.32;100.00;101294.16;4946560;28;45170;-61
2022/08/05 04:54:36;;;;;;;;;9.25;8.00;;;;;19.29;100.00;101292.56;4956919;28;45299;-61
2022/08/05 04:57:02;;;;;;;;;9.50;7.50;;;;;19.26;100.00;101292.72;4958057;28;45299;-61
2022/08/05 04:59:27;;;;;;;;;8.75;6.75;;;;;19.29;100.00;101296.97;4957345;28;46105;-61
2022/08/05 05:01:52;;;;;;;;;7.00;5.50;;;;;19.28;100.00;101298.75;4957740;28;45312;-61
2022/08/05 05:04:18;;;;;;;;;8.25;7.00;;;;;19.34;100.00;101306.31;4957661;28;45332;-61
2022/08/05 05:06:44;;;;;;;;;11.00;7.00;;;;;19.37;100.00;101308.78;4957881;28;45194;-61
2022/08/05 05:09:10;;;;;;;;;9.25;6.00;;;;;19.41;100.00;101306.81;4958949;28;45281;-61
2022/08/05 05:11:36;;;;;;;;;6.50;5.25;;;;;19.43;100.00;101313.75;4957768;28;45255;-60
2022/08/05 05:14:02;;;;;;;;;11.25;7.75;;;;;19.44;100.00;101310.16;4958361;28;45423;-60
2022/08/05 05:16:28;;;;;;;;;8.50;7.75;;;;;19.48;100.00;101323.19;4970175;28;45388;-61
2022/08/05 05:18:53;;;;;;;;;7.00;6.00;;;;;19.53;100.00;101314.06;4957590;28;45305;-61
2022/08/05 05:21:19;;;;;;;;;9.25;6.25;;;;;19.55;100.00;101319.28;4957694;28;45382;-61
2022/08/05 05:23:44;;;;;;;;;9.25;8.00;;;;;19.54;100.00;101326.34;4957742;28;45305;-62
2022/08/05 05:26:09;;;;;;;;;6.75;6.75;;;;;19.60;100.00;101336.53;4957672;28;46807;-61
2022/08/05 05:28:35;;;;;;;;;5.75;5.75;;;;;19.60;100.00;101339.19;4957237;28;47068;-60
2022/08/05 05:31:00;;;;;;;;;9.00;7.25;;;;;19.59;100.00;101347.19;4955279;28;45287;-60
2022/08/05 05:33:25;;;;;;;;;11.75;7.50;;;;;19.63;100.00;101348.72;4956551;28;45449;-61
2022/08/05 05:35:50;;;;;;;;;7.75;7.00;;;;;19.64;100.00;101350.44;4956870;28;45375;-61
2022/08/05 05:38:16;;;;;;;;;9.00;8.50;;;;;19.66;100.00;101349.41;4956756;28;46071;-60
2022/08/05 05:40:42;;;;;;;;;11.25;9.50;;;;;19.63;98.17;101357.50;4944435;28;45422;-60
2022/08/05 05:43:08;;;;;;;;;9.75;7.25;;;;;19.58;100.00;101356.03;4957748;28;45526;-60
2022/08/05 05:45:33;;;;;;;;;9.75;8.00;;;;;19.45;95.28;101358.47;4956942;28;45543;-60
2022/08/05 05:47:59;;;;;;;;;14.50;9.25;;;;;19.37;100.00;101366.78;4974130;28;45410;-61
2022/08/05 05:50:25;;;;;;;;;9.00;8.25;;;;;19.37;100.00;101368.56;4955760;28;45293;-60
2022/08/05 05:52:50;;;;;;;;;11.50;9.75;;;;;19.36;100.00;101366.84;4957315;28;45275;-60
2022/08/05 05:55:17;;;;;;;;;10.50;7.75;;;;;19.32;94.26;101363.53;4957290;28;45303;-60
2022/08/05 05:57:44;;;;;;;;;8.75;7.50;;;;;19.27;100.00;101368.22;4956946;28;45372;-61
2022/08/05 06:00:18;;;;;;;;;11.50;8.25;;;;;19.28;100.00;101371.72;4956726;28;45372;-60
2022/08/05 06:02:45;;;;;;;;;11.00;9.00;;;;;19.29;100.00;101370.78;4957378;28;45347;-60
2022/08/05 06:05:13;;;;;;;;;11.00;7.75;;;;;19.29;100.00;101370.78;4957067;28;45461;-60
2022/08/05 06:07:39;;;;;;;;;11.25;9.25;;;;;19.38;100.00;101380.81;4959758;28;45509;-60
2022/08/05 06:10:06;;;;;;;;;10.00;8.00;;;;;19.46;100.00;101381.25;4959828;28;45264;-60
2022/08/05 06:12:32;;;;;;;;;12.50;8.75;;;;;19.51;100.00;101387.13;4960042;28;45310;-60
2022/08/05 06:15:00;;;;;;;;;10.25;9.50;;;;;19.56;100.00;101394.81;4959879;28;45493;-60
2022/08/05 06:17:25;;;;;;;;;6.00;6.00;;;;;19.59;100.00;101392.84;4959753;28;46337;-60
2022/08/05 06:19:50;;;;;;;;;10.75;8.00;;;;;19.65;100.00;101400.44;4958392;28;45680;-60
2022/08/05 06:22:23;;;;;;;;;9.25;7.75;;;;;19.73;100.00;101403.50;4959749;28;45475;-60
2022/08/05 06:24:48;;;;;;;;;9.25;7.75;;;;;19.78;100.00;101399.75;4959575;28;45285;-60
2022/08/05 06:27:14;;;;;;;;;11.00;8.25;;;;;19.82;100.00;101391.56;4959606;28;45248;-60
2022/08/05 06:29:39;;;;;;;;;8.75;8.00;;;;;19.92;100.00;101394.56;4959368;28;45307;-60
2022/08/05 06:32:05;;;;;;;;;9.75;8.25;;;;;20.03;100.00;101390.41;4959739;28;45553;-60
2022/08/05 06:34:30;;;;;;;;;9.75;7.75;;;;;20.09;100.00;101399.75;4959546;28;45311;-60
2022/08/05 06:36:55;;;;;;;;;11.50;8.50;;;;;20.19;100.00;101405.34;4957773;28;54994;-60
2022/08/05 06:39:21;;;;;;;;;9.25;8.00;;;;;20.25;90.83;101405.88;4952252;28;45316;-60
2022/08/05 06:41:46;;;;;;;;;8.00;7.75;;;;;20.29;99.04;101407.38;4953867;28;45299;-61
2022/08/05 06:44:11;;;;;;;;;6.75;6.75;;;;;20.34;100.00;101405.31;4959502;28;45447;-61
2022/08/05 06:46:36;;;;;;;;;7.25;7.25;;;;;20.42;96.16;101406.69;4976387;28;50174;-61
2022/08/05 06:49:02;;;;;;;;;13.25;9.75;;;;;20.40;98.02;101404.09;4959483;28;45515;-61
2022/08/05 06:51:28;;;;;;;;;11.00;7.25;;;;;20.43;100.00;101404.00;4958022;28;45438;-61
2022/08/05 06:53:53;;;;;;;;;13.25;9.50;;;;;20.51;100.00;101411.47;4959480;28;45364;-61
2022/08/05 06:56:19;;;;;;;;;12.25;8.00;;;;;20.56;89.27;101407.59;4959121;28;45558;-61
2022/08/05 06:58:44;;;;;;;;;10.50;8.50;;;;;20.55;97.04;101407.69;4959286;28;45247;-62
2022/08/05 07:01:10;;;;;;;;;9.00;9.00;;;;;20.57;93.59;101413.72;4959377;28;45460;-61
2022/08/05 07:03:35;;;;;;;;;16.50;11.75;;;;;20.60;99.30;101413.53;4959893;28;45417;-61
2022/08/05 07:06:03;;;;;;;;;14.00;11.00;;;;;20.68;96.29;101415.75;4958919;28;45279;-61
2022/08/05 07:08:28;;;;;;;;;15.75;10.75;;;;;20.72;89.94;101420.75;4959308;28;45659;-64
2022/08/05 07:10:54;;;;;;;;;7.75;7.00;;;;;20.76;97.54;101413.50;4959276;28;45340;-60
2022/08/05 07:18:50;;;;;;;;;9.75;9.75;;;;;20.85;93.17;101439.38;4958973;28;45651;-60
2022/08/05 07:21:15;;;;;;;;;8.75;8.75;;;;;20.85;96.26;101436.75;4959188;28;45459;-60
2022/08/05 07:23:40;;;;;;;;;10.25;8.75;;;;;20.91;85.20;101437.22;4958904;28;45284;-60
2022/08/05 07:26:06;;;;;;;;;11.75;8.50;;;;;20.90;91.00;101430.25;4958801;28;48996;-61
2022/08/05 07:28:31;;;;;;;;;7.75;7.75;;;;;20.93;89.91;101432.69;4959244;28;45166;-60
2022/08/05 07:30:56;;;;;;;;;14.50;11.25;;;;;21.01;96.03;101434.00;4959054;28;45224;-60
2022/08/05 07:33:22;;;;;;;;;9.75;9.00;;;;;21.14;92.69;101448.22;4958765;28;53784;-60
2022/08/05 07:35:48;;;;;;;;;9.25;9.00;;;;;21.20;90.30;101438.09;4958829;28;45150;-60
2022/08/05 07:38:14;;;;;;;;;12.75;9.75;;;;;21.30;93.80;101446.38;4958726;28;45262;-60
2022/08/05 07:40:40;;;;;;;;;7.75;7.00;;;;;21.38;92.85;101446.75;4950725;28;45220;-60
2022/08/05 07:43:05;;;;;;;;;8.50;8.00;;;;;21.47;91.15;101440.91;4967010;28;45158;-60
2022/08/05 07:45:33;;;;;;;;;9.50;8.00;;;;;21.48;83.38;101445.25;4958184;28;45310;-60
2022/08/05 07:47:59;;;;;;;;;13.00;9.25;;;;;21.47;89.08;101451.47;4972006;28;45362;-62
2022/08/05 07:50:24;;;;;;;;;12.00;9.75;;;;;21.62;90.39;101464.69;4947140;28;45383;-62
2022/08/05 07:52:49;;;;;;;;;12.50;8.50;;;;;21.71;83.78;101462.31;4958623;28;45588;-63
2022/08/05 07:55:15;;;;;;;;;14.00;10.50;;;;;21.70;78.56;101470.34;4958448;28;45673;-61
2022/08/05 07:57:40;;;;;;;;;16.25;10.00;;;;;21.72;89.43;101471.97;4958688;28;45379;-61
2022/08/05 08:00:07;;;;;;;;;16.75;8.75;;;;;21.86;88.74;101473.75;4971351;28;45258;-62
2022/08/05 08:02:32;;;;;;;;;13.00;8.25;;;;;22.00;88.98;101478.16;4958758;28;45443;-62
2022/08/05 08:04:58;;;;;;;;;9.25;8.00;;;;;22.16;91.58;101478.91;4957908;28;45597;-62
2022/08/05 08:07:23;;;;;;;;;12.50;9.75;;;;;22.24;79.17;101475.78;4958650;28;45271;-62
2022/08/05 08:09:50;;;;;;;;;9.25;8.50;;;;;22.28;83.20;101474.63;4958505;28;45199;-63
2022/08/05 08:12:15;;;;;;;;;9.75;7.50;;;;;22.33;88.41;101483.97;4958504;28;45496;-61
2022/08/05 08:14:42;;;;;;;;;10.25;8.00;;;;;22.41;85.51;101494.06;4958012;28;46213;-62
2022/08/05 08:17:09;;;;;;;;;7.50;7.50;;;;;22.35;84.11;101491.81;4958572;28;45282;-62
2022/08/05 08:19:36;;;;;;;;;12.25;10.50;;;;;22.39;86.67;101488.00;4958759;28;45379;-61
2022/08/05 08:22:01;;;;;;;;;14.50;9.00;;;;;22.50;81.55;101498.78;4958650;28;45216;-61
2022/08/05 08:24:26;;;;;;;;;12.25;8.00;;;;;22.51;76.65;101494.31;4961387;28;46126;-62
2022/08/05 08:26:52;;;;;;;;;9.50;8.00;;;;;22.55;82.49;101498.47;4956931;28;46561;-61
2022/08/05 08:29:17;;;;;;;;;8.25;7.00;;;;;22.53;77.32;101497.72;4956959;28;45237;-61
2022/08/05 08:31:42;;;;;;;;;9.00;9.00;;;;;22.48;73.37;101497.19;4958366;28;47676;-60
2022/08/05 08:34:08;;;;;;;;;10.00;8.25;;;;;22.50;81.01;101501.41;4971034;28;46120;-60
2022/08/05 08:36:33;;;;;;;;;10.75;9.25;;;;;22.61;82.16;101500.69;4957992;28;50315;-61
2022/08/05 08:38:58;;;;;;;;;6.00;6.00;;;;;22.73;80.55;101508.69;4954059;28;45435;-63
2022/08/05 08:41:25;;;;;;;;;9.50;6.75;;;;;22.81;75.24;101515.28;4949771;28;45287;-62
2022/08/05 08:43:53;;;;;;;;;8.00;8.00;;;;;22.94;81.95;101509.09;4957667;28;45438;-63
2022/08/05 08:46:20;;;;;;;;;13.25;11.00;;;;;23.07;77.88;101511.78;4973645;28;45672;-61
2022/08/05 08:48:47;;;;;;;;;11.00;9.00;;;;;23.10;80.54;101516.88;4959857;28;45500;-63
2022/08/05 08:51:13;;;;;;;;;9.25;7.00;;;;;23.18;77.11;101519.00;4958073;28;45263;-64
2022/08/05 08:53:41;;;;;;;;;7.75;7.00;;;;;23.18;77.38;101517.19;4958026;28;45316;-63
2022/08/05 08:56:06;;;;;;;;;10.50;6.75;;;;;23.30;78.81;101518.19;4958351;28;45529;-68
2022/08/05 08:58:32;;;;;;;;;8.00;7.00;;;;;23.43;71.81;101526.16;4958136;28;45363;-62
2022/08/05 09:00:58;;;;;;;;;8.25;8.25;;;;;23.48;79.13;101535.50;4949730;28;45462;-64
2022/08/05 09:03:23;;;;;;;;;6.50;4.75;;;;;23.46;71.27;101534.75;4953332;28;45933;-65
2022/08/05 09:05:49;;;;;;;;;8.25;6.00;;;;;23.35;71.98;101540.78;4948602;28;45318;-65
2022/08/05 09:08:16;;;;;;;;;11.25;8.75;;;;;23.46;78.92;101534.75;4957921;28;45454;-62
2022/08/05 09:10:43;;;;;;;;;12.25;7.50;;;;;23.58;77.59;101539.22;4958472;28;45318;-63
2022/08/05 09:13:12;;;;;;;;;8.50;7.50;;;;;23.67;76.43;101543.06;4958002;28;46186;-63
2022/08/05 09:15:38;;;;;;;;;15.00;9.00;;;;;23.64;69.98;101532.66;4953532;28;45475;-62
2022/08/05 09:18:07;;;;;;;;;6.75;6.25;;;;;23.56;63.98;101542.91;4955198;28;45331;-63
2022/08/05 09:20:32;;;;;;;;;9.00;9.00;;;;;23.57;68.80;101555.25;4957459;28;45320;-64
2022/08/05 09:23:09;;;;;;;;;9.00;9.00;;;;;23.57;74.63;101545.47;4957642;28;45219;-64
2022/08/05 09:25:37;;;;;;;;;11.75;9.25;;;;;23.61;74.76;101548.75;4957972;28;45257;-63
2022/08/05 09:28:11;;;;;;;;;12.00;10.00;;;;;23.61;63.99;101546.13;4957991;28;45375;-63
2022/08/05 09:30:36;;;;;;;;;12.50;10.00;;;;;23.56;71.86;101550.88;4957564;28;45297;-62
2022/08/05 09:33:02;;;;;;;;;9.00;9.00;;;;;23.59;73.81;101545.38;4957820;28;46991;-61
2022/08/05 09:35:28;;;;;;;;;9.75;8.25;;;;;23.68;68.97;101555.38;4972535;28;45526;-62
2022/08/05 09:37:56;;;;;;;;;13.50;10.00;;;;;23.71;71.33;101546.34;4953835;28;45271;-63
2022/08/05 09:40:31;;;;;;;;;10.75;9.75;;;;;23.82;73.48;101544.59;4951010;28;45408;-60
2022/08/05 09:42:57;;;;;;;;;11.50;10.50;;;;;23.95;67.63;101550.75;4958417;28;45289;-61
2022/08/05 09:45:34;;;;;;;;;11.00;10.00;;;;;24.04;65.26;101548.44;4955330;28;45243;-59
2022/08/05 09:48:00;;;;;;;;;12.50;11.00;;;;;24.01;74.51;101552.13;4969775;28;45336;-59
2022/08/05 09:50:34;;;;;;;;;11.75;11.75;;;;;24.10;68.20;101556.81;4951484;28;45509;-59
2022/08/05 09:53:00;;;;;;;;;14.75;11.00;;;;;24.23;66.01;101556.78;4956915;28;46997;-59
2022/08/05 09:55:25;;;;;;;;;10.50;10.25;;;;;24.39;76.22;101559.19;4957420;28;45407;-59
2022/08/05 09:57:51;;;;;;;;;11.00;9.00;;;;;24.43;72.70;101540.28;5021922;28;45299;-61
2022/08/05 10:00:24;;;;;;;;;10.50;6.75;;;;;24.57;66.66;101571.13;4955410;28;45337;-62
2022/08/05 10:02:54;;;;;;;;;15.50;12.50;;;;;24.61;69.11;101558.47;4956992;28;46137;-60
2022/08/05 10:05:23;;;;;;;;;36.50;24.00;;;;;24.70;69.60;101555.16;4957148;28;45372;-59
2022/08/05 10:07:56;;;;;;;;;9.50;7.75;;;;;24.70;61.63;101557.81;4957101;28;45423;-63
2022/08/05 10:10:27;;;;;;;;;9.50;8.75;;;;;24.69;63.51;101554.31;4957353;28;45302;-61
2022/08/05 10:12:55;;;;;;;;;11.25;8.75;;;;;24.72;68.41;101547.91;4956975;28;46420;-60
2022/08/05 10:15:28;;;;;;;;;8.25;7.25;;;;;24.78;67.46;101558.09;4956456;28;45331;-61
2022/08/05 10:18:21;;;;;;;;;10.75;10.25;;;;;24.93;73.02;101545.47;4957040;28;45260;-68
2022/08/05 10:20:54;;;;;;;;;6.75;5.50;;;;;25.05;70.29;101545.44;4960413;28;45399;-61
2022/08/05 10:23:28;;;;;;;;;8.50;8.00;;;;;25.14;68.81;101551.84;4956978;28;45200;-61
2022/08/05 10:25:55;;;;;;;;;6.50;6.00;;;;;25.13;73.89;101545.69;4969874;28;45505;-65
2022/08/05 10:28:21;;;;;;;;;10.75;6.50;;;;;25.03;60.91;101565.09;4957116;28;45164;-54
2022/08/05 10:30:47;;;;;;;;;7.00;7.00;;;;;24.80;68.56;101557.00;4956506;28;45414;-53
2022/08/05 10:33:12;;;;;;;;;7.50;6.00;;;;;24.88;72.22;101559.09;4956941;28;46040;-54
2022/08/05 10:35:38;;;;;;;;;11.00;9.50;;;;;24.91;62.94;101548.25;4955152;28;45401;-56
2022/08/05 10:38:05;;;;;;;;;8.75;7.00;;;;;25.12;64.34;101546.66;4956870;28;45316;-65
2022/08/05 10:40:39;;;;;;;;;6.25;6.00;;;;;25.39;70.49;101554.31;4942549;28;45546;-65
2022/08/05 10:43:35;;;;;;;;;8.75;7.50;;;;;25.65;67.14;101562.13;4956443;28;46240;-64
2022/08/05 10:46:04;;;;;;;;;6.00;6.00;;;;;25.76;66.52;101559.50;4959362;28;45351;-66
2022/08/05 10:48:38;;;;;;;;;9.00;7.50;;;;;25.90;63.13;101561.94;4951915;28;45434;-65
2022/08/05 10:51:04;;;;;;;;;9.25;8.00;;;;;26.01;63.99;101550.41;4947275;28;45452;-64
2022/08/05 10:53:34;;;;;;;;;10.00;8.50;;;;;26.03;64.48;101565.31;4958341;28;46059;-60
2022/08/05 10:56:13;;;;;;;;;5.50;5.50;;;;;26.07;69.34;101563.25;4959768;28;45355;-64
2022/08/05 10:59:03;;;;;;;;;8.25;8.25;;;;;26.16;58.05;101554.50;4959553;28;45281;-63
2022/08/05 11:01:43;;;;;;;;;8.00;6.00;;;;;26.33;62.48;101564.66;4959646;28;45321;-58
2022/08/05 11:04:09;;;;;;;;;10.75;9.00;;;;;26.35;64.55;101570.75;4951132;28;46107;-57
2022/08/05 11:06:56;;;;;;;;;10.00;9.00;;;;;26.31;58.45;101574.63;4957629;28;45198;-57
2022/08/05 11:09:38;;;;;;;;;11.50;10.25;;;;;26.07;63.12;101584.56;4954062;28;45418;-54
2022/08/05 11:12:04;;;;;;;;;9.75;8.00;;;;;25.85;53.94;101588.09;4959332;28;45288;-55
2022/08/05 11:14:32;;;;;;;;;8.00;8.00;;;;;25.84;57.21;101583.72;4959203;28;45435;-56
2022/08/05 11:17:28;;;;;;;;;11.50;7.75;;;;;25.91;62.17;101579.59;4959121;28;45529;-55
2022/08/05 11:19:54;;;;;;;;;7.75;7.50;;;;;25.68;47.15;101588.53;4951314;28;45278;-53
2022/08/05 11:22:41;;;;;;;;;10.00;8.00;;;;;25.63;57.59;101588.88;4958756;28;45482;-54
2022/08/05 11:25:26;;;;;;;;;7.50;7.50;;;;;25.80;61.98;101581.41;4958675;28;47069;-53